sensor_id;sensor_type;location;lat;lon;timestamp;temperature;humidity
20839;DHT22;10580;51.092;6.828;2023-03-20T00:00:13;9.20;96.50
20839;DHT22;10580;51.092;6.828;2023-03-20T00:02:40;9.30;95.80
20839;DHT22;10580;51.092;6.828;2023-03-20T00:05:17;9.20;96.70
20839;DHT22;10580;51.092;6.828;2023-03-20T00:07:44;9.20;95.70
20839;DHT22;10580;51.092;6.828;2023-03-20T00:10:10;9.20;94.80
20839;DHT22;10580;51.092;6.828;2023-03-20T00:12:36;9.20;97.40
20839;DHT22;10580;51.092;6.828;2023-03-20T00:15:05;9.20;97.20
20839;DHT22;10580;51.092;6.828;2023-03-20T00:17:32;9.20;95.80
20839;DHT22;10580;51.092;6.828;2023-03-20T00:19:57;9.20;95.60
20839;DHT22;10580;51.092;6.828;2023-03-20T00:22:23;9.20;97.30
20839;DHT22;10580;51.092;6.828;2023-03-20T00:24:48;9.20;97.30
20839;DHT22;10580;51.092;6.828;2023-03-20T00:27:15;9.10;95.90
20839;DHT22;10580;51.092;6.828;2023-03-20T00:29:42;9.20;98.70
20839;DHT22;10580;51.092;6.828;2023-03-20T00:32:12;9.10;98.60
20839;DHT22;10580;51.092;6.828;2023-03-20T00:34:37;9.10;99.30
20839;DHT22;10580;51.092;6.828;2023-03-20T00:37:03;9.10;99.90
20839;DHT22;10580;51.092;6.828;2023-03-20T00:39:29;9.10;99.70
20839;DHT22;10580;51.092;6.828;2023-03-20T00:42:06;9.00;99.90
20839;DHT22;10580;51.092;6.828;2023-03-20T00:44:36;9.00;99.90
20839;DHT22;10580;51.092;6.828;2023-03-20T00:47:09;9.00;99.90
20839;DHT22;10580;51.092;6.828;2023-03-20T00:49:36;9.00;99.90
20839;DHT22;10580;51.092;6.828;2023-03-20T00:52:03;9.00;99.90
20839;DHT22;10580;51.092;6.828;2023-03-20T00:54:30;9.00;99.90
20839;DHT22;10580;51.092;6.828;2023-03-20T00:57:02;9.00;99.90
20839;DHT22;10580;51.092;6.828;2023-03-20T00:59:35;9.10;99.90
20839;DHT22;10580;51.092;6.828;2023-03-20T01:02:02;9.10;99.90
20839;DHT22;10580;51.092;6.828;2023-03-20T01:04:34;9.00;99.90
20839;DHT22;10580;51.092;6.828;2023-03-20T01:07:00;9.10;99.90
20839;DHT22;10580;51.092;6.828;2023-03-20T01:09:26;9.10;99.90
20839;DHT22;10580;51.092;6.828;2023-03-20T01:11:51;9.10;99.90
20839;DHT22;10580;51.092;6.828;2023-03-20T01:14:17;9.10;99.90
20839;DHT22;10580;51.092;6.828;2023-03-20T01:16:43;9.00;99.90
20839;DHT22;10580;51.092;6.828;2023-03-20T01:19:13;9.10;99.90
20839;DHT22;10580;51.092;6.828;2023-03-20T01:21:39;9.00;97.30
20839;DHT22;10580;51.092;6.828;2023-03-20T01:24:05;9.00;96.80
20839;DHT22;10580;51.092;6.828;2023-03-20T01:26:35;8.90;99.90
20839;DHT22;10580;51.092;6.828;2023-03-20T01:29:01;8.90;99.90
20839;DHT22;10580;51.092;6.828;2023-03-20T01:31:27;8.90;99.90
20839;DHT22;10580;51.092;6.828;2023-03-20T01:33:53;8.80;99.90
20839;DHT22;10580;51.092;6.828;2023-03-20T01:36:21;8.80;99.90
20839;DHT22;10580;51.092;6.828;2023-03-20T01:38:54;8.70;99.90
20839;DHT22;10580;51.092;6.828;2023-03-20T01:41:23;8.70;99.90
20839;DHT22;10580;51.092;6.828;2023-03-20T01:43:48;8.70;99.90
20839;DHT22;10580;51.092;6.828;2023-03-20T01:46:25;8.60;99.90
20839;DHT22;10580;51.092;6.828;2023-03-20T01:51:23;8.50;99.90
20839;DHT22;10580;51.092;6.828;2023-03-20T01:53:53;8.50;99.90
20839;DHT22;10580;51.092;6.828;2023-03-20T01:56:21;8.50;99.90
20839;DHT22;10580;51.092;6.828;2023-03-20T01:58:53;8.40;99.90
20839;DHT22;10580;51.092;6.828;2023-03-20T02:01:21;8.40;99.90
20839;DHT22;10580;51.092;6.828;2023-03-20T02:03:49;8.40;99.90
20839;DHT22;10580;51.092;6.828;2023-03-20T02:06:15;8.40;99.90
20839;DHT22;10580;51.092;6.828;2023-03-20T02:08:45;8.40;99.90
20839;DHT22;10580;51.092;6.828;2023-03-20T02:11:11;8.40;99.90
20839;DHT22;10580;51.092;6.828;2023-03-20T02:13:38;8.40;99.90
20839;DHT22;10580;51.092;6.828;2023-03-20T02:16:08;8.40;99.90
20839;DHT22;10580;51.092;6.828;2023-03-20T02:18:35;8.40;99.90
20839;DHT22;10580;51.092;6.828;2023-03-20T02:40:13;8.00;99.90
20839;DHT22;10580;51.092;6.828;2023-03-20T02:42:55;7.90;99.90
20839;DHT22;10580;51.092;6.828;2023-03-20T02:45:27;7.90;99.90
20839;DHT22;10580;51.092;6.828;2023-03-20T02:48:14;7.90;99.90
20839;DHT22;10580;51.092;6.828;2023-03-20T02:53:48;7.70;99.90
20839;DHT22;10580;51.092;6.828;2023-03-20T02:56:34;7.70;99.90
20839;DHT22;10580;51.092;6.828;2023-03-20T03:01:51;7.80;99.90
20839;DHT22;10580;51.092;6.828;2023-03-20T03:04:19;7.80;99.90
20839;DHT22;10580;51.092;6.828;2023-03-20T03:06:49;7.90;99.90
20839;DHT22;10580;51.092;6.828;2023-03-20T03:09:23;8.00;99.90
20839;DHT22;10580;51.092;6.828;2023-03-20T03:11:52;8.00;99.90
20839;DHT22;10580;51.092;6.828;2023-03-20T03:14:39;8.00;99.90
20839;DHT22;10580;51.092;6.828;2023-03-20T03:17:06;8.00;99.90
20839;DHT22;10580;51.092;6.828;2023-03-20T03:19:34;8.00;99.90
20839;DHT22;10580;51.092;6.828;2023-03-20T03:22:02;8.10;99.90
20839;DHT22;10580;51.092;6.828;2023-03-20T03:24:31;8.10;99.90
20839;DHT22;10580;51.092;6.828;2023-03-20T03:26:59;8.10;99.90
20839;DHT22;10580;51.092;6.828;2023-03-20T03:29:30;8.10;99.90
20839;DHT22;10580;51.092;6.828;2023-03-20T03:31:59;8.00;99.90
20839;DHT22;10580;51.092;6.828;2023-03-20T03:34:27;8.00;99.90
20839;DHT22;10580;51.092;6.828;2023-03-20T03:37:01;7.90;99.90
20839;DHT22;10580;51.092;6.828;2023-03-20T03:39:48;7.90;99.90
20839;DHT22;10580;51.092;6.828;2023-03-20T03:42:45;7.80;99.90
20839;DHT22;10580;51.092;6.828;2023-03-20T03:45:28;7.80;99.90
20839;DHT22;10580;51.092;6.828;2023-03-20T03:48:41;7.80;99.90
20839;DHT22;10580;51.092;6.828;2023-03-20T03:50:52;7.80;99.90
20839;DHT22;10580;51.092;6.828;2023-03-20T03:53:22;7.90;99.90
20839;DHT22;10580;51.092;6.828;2023-03-20T03:55:54;7.90;99.90
20839;DHT22;10580;51.092;6.828;2023-03-20T03:58:39;7.90;99.90
20839;DHT22;10580;51.092;6.828;2023-03-20T04:01:07;7.90;99.90
20839;DHT22;10580;51.092;6.828;2023-03-20T04:03:39;7.80;99.90
20839;DHT22;10580;51.092;6.828;2023-03-20T04:06:06;7.80;99.90
20839;DHT22;10580;51.092;6.828;2023-03-20T04:08:34;7.90;99.90
20839;DHT22;10580;51.092;6.828;2023-03-20T04:11:00;7.90;99.90
20839;DHT22;10580;51.092;6.828;2023-03-20T04:13:26;7.90;99.90
20839;DHT22;10580;51.092;6.828;2023-03-20T04:15:51;7.90;99.90
20839;DHT22;10580;51.092;6.828;2023-03-20T04:18:18;8.00;99.90
20839;DHT22;10580;51.092;6.828;2023-03-20T04:20:45;7.90;99.90
20839;DHT22;10580;51.092;6.828;2023-03-20T04:23:12;7.80;99.90
20839;DHT22;10580;51.092;6.828;2023-03-20T04:25:37;7.80;99.90
20839;DHT22;10580;51.092;6.828;2023-03-20T04:28:03;7.90;99.90
20839;DHT22;10580;51.092;6.828;2023-03-20T04:30:29;7.90;99.90
20839;DHT22;10580;51.092;6.828;2023-03-20T04:32:55;7.90;99.90
20839;DHT22;10580;51.092;6.828;2023-03-20T04:35:21;7.80;99.90
20839;DHT22;10580;51.092;6.828;2023-03-20T04:37:47;7.80;99.90
20839;DHT22;10580;51.092;6.828;2023-03-20T04:40:12;7.80;99.90
20839;DHT22;10580;51.092;6.828;2023-03-20T04:42:38;7.80;99.90
20839;DHT22;10580;51.092;6.828;2023-03-20T04:45:04;7.80;99.90
20839;DHT22;10580;51.092;6.828;2023-03-20T04:47:31;7.70;99.90
20839;DHT22;10580;51.092;6.828;2023-03-20T04:49:56;7.70;99.90
20839;DHT22;10580;51.092;6.828;2023-03-20T04:52:22;7.70;99.90
20839;DHT22;10580;51.092;6.828;2023-03-20T04:54:47;7.60;99.90
20839;DHT22;10580;51.092;6.828;2023-03-20T04:57:13;7.60;99.90
20839;DHT22;10580;51.092;6.828;2023-03-20T04:59:38;7.60;99.90
20839;DHT22;10580;51.092;6.828;2023-03-20T05:02:04;7.60;99.90
20839;DHT22;10580;51.092;6.828;2023-03-20T05:04:30;7.60;99.90
20839;DHT22;10580;51.092;6.828;2023-03-20T05:06:55;7.60;99.90
20839;DHT22;10580;51.092;6.828;2023-03-20T05:09:21;7.60;99.90
20839;DHT22;10580;51.092;6.828;2023-03-20T05:11:46;7.60;99.90
20839;DHT22;10580;51.092;6.828;2023-03-20T05:14:12;7.60;99.90
20839;DHT22;10580;51.092;6.828;2023-03-20T05:16:38;7.50;99.90
20839;DHT22;10580;51.092;6.828;2023-03-20T05:19:04;7.40;99.90
20839;DHT22;10580;51.092;6.828;2023-03-20T05:21:29;7.40;99.90
20839;DHT22;10580;51.092;6.828;2023-03-20T05:23:55;7.40;99.90
20839;DHT22;10580;51.092;6.828;2023-03-20T05:26:20;7.40;99.90
20839;DHT22;10580;51.092;6.828;2023-03-20T05:28:46;7.30;99.90
20839;DHT22;10580;51.092;6.828;2023-03-20T05:31:12;7.20;99.90
20839;DHT22;10580;51.092;6.828;2023-03-20T05:33:37;7.20;99.90
20839;DHT22;10580;51.092;6.828;2023-03-20T05:36:03;7.20;99.90
20839;DHT22;10580;51.092;6.828;2023-03-20T05:38:29;7.20;99.90
20839;DHT22;10580;51.092;6.828;2023-03-20T05:40:59;7.20;99.90
20839;DHT22;10580;51.092;6.828;2023-03-20T05:43:24;7.20;99.90
20839;DHT22;10580;51.092;6.828;2023-03-20T05:45:51;7.20;99.90
20839;DHT22;10580;51.092;6.828;2023-03-20T05:48:17;7.20;99.90
20839;DHT22;10580;51.092;6.828;2023-03-20T05:50:42;7.10;99.90
20839;DHT22;10580;51.092;6.828;2023-03-20T05:53:08;7.10;99.90
20839;DHT22;10580;51.092;6.828;2023-03-20T05:55:33;7.10;99.90
20839;DHT22;10580;51.092;6.828;2023-03-20T05:57:59;7.20;99.90
20839;DHT22;10580;51.092;6.828;2023-03-20T06:00:25;7.20;99.90
20839;DHT22;10580;51.092;6.828;2023-03-20T06:02:51;7.20;99.90
20839;DHT22;10580;51.092;6.828;2023-03-20T06:05:16;7.20;99.90
20839;DHT22;10580;51.092;6.828;2023-03-20T06:07:42;7.30;99.90
20839;DHT22;10580;51.092;6.828;2023-03-20T06:10:08;7.30;99.90
20839;DHT22;10580;51.092;6.828;2023-03-20T06:12:34;7.30;99.90
20839;DHT22;10580;51.092;6.828;2023-03-20T06:15:00;7.30;99.90
20839;DHT22;10580;51.092;6.828;2023-03-20T06:17:26;7.30;99.90
20839;DHT22;10580;51.092;6.828;2023-03-20T06:19:51;7.40;99.90
20839;DHT22;10580;51.092;6.828;2023-03-20T06:22:17;7.40;99.90
20839;DHT22;10580;51.092;6.828;2023-03-20T06:24:42;7.50;99.90
20839;DHT22;10580;51.092;6.828;2023-03-20T06:27:08;7.60;99.90
20839;DHT22;10580;51.092;6.828;2023-03-20T06:29:33;7.60;99.90
20839;DHT22;10580;51.092;6.828;2023-03-20T06:31:59;7.60;99.90
20839;DHT22;10580;51.092;6.828;2023-03-20T06:34:25;7.60;99.90
20839;DHT22;10580;51.092;6.828;2023-03-20T06:36:50;7.60;99.90
20839;DHT22;10580;51.092;6.828;2023-03-20T06:39:16;7.70;99.90
20839;DHT22;10580;51.092;6.828;2023-03-20T06:41:42;7.90;99.90
20839;DHT22;10580;51.092;6.828;2023-03-20T06:44:07;8.00;99.10
20839;DHT22;10580;51.092;6.828;2023-03-20T06:46:33;8.00;94.00
20839;DHT22;10580;51.092;6.828;2023-03-20T06:48:58;7.90;89.10
20839;DHT22;10580;51.092;6.828;2023-03-20T06:51:24;7.90;90.50
20839;DHT22;10580;51.092;6.828;2023-03-20T06:53:50;7.90;92.70
20839;DHT22;10580;51.092;6.828;2023-03-20T06:56:15;7.90;99.90
20839;DHT22;10580;51.092;6.828;2023-03-20T06:58:41;8.00;99.90
20839;DHT22;10580;51.092;6.828;2023-03-20T07:01:14;7.90;96.00
20839;DHT22;10580;51.092;6.828;2023-03-20T07:03:44;8.00;94.70
20839;DHT22;10580;51.092;6.828;2023-03-20T07:06:11;8.00;89.70
20839;DHT22;10580;51.092;6.828;2023-03-20T07:08:37;8.10;91.30
20839;DHT22;10580;51.092;6.828;2023-03-20T07:11:03;8.10;87.90
20839;DHT22;10580;51.092;6.828;2023-03-20T07:13:29;8.10;81.60
20839;DHT22;10580;51.092;6.828;2023-03-20T07:15:54;8.20;69.00
20839;DHT22;10580;51.092;6.828;2023-03-20T07:18:23;8.10;61.20
20839;DHT22;10580;51.092;6.828;2023-03-20T07:20:51;8.30;72.10
20839;DHT22;10580;51.092;6.828;2023-03-20T07:23:16;8.40;68.20
20839;DHT22;10580;51.092;6.828;2023-03-20T07:25:42;8.50;59.40
20839;DHT22;10580;51.092;6.828;2023-03-20T07:28:07;8.50;54.40
20839;DHT22;10580;51.092;6.828;2023-03-20T07:30:33;8.50;41.20
20839;DHT22;10580;51.092;6.828;2023-03-20T07:32:59;8.50;27.80
20839;DHT22;10580;51.092;6.828;2023-03-20T07:35:24;8.40;39.00
20839;DHT22;10580;51.092;6.828;2023-03-20T07:37:50;8.40;43.90
20839;DHT22;10580;51.092;6.828;2023-03-20T07:40:16;8.40;41.00
20839;DHT22;10580;51.092;6.828;2023-03-20T07:42:41;8.50;54.50
20839;DHT22;10580;51.092;6.828;2023-03-20T07:45:08;8.40;46.30
20839;DHT22;10580;51.092;6.828;2023-03-20T07:47:34;8.50;55.00
20839;DHT22;10580;51.092;6.828;2023-03-20T07:50:00;8.60;42.00
20839;DHT22;10580;51.092;6.828;2023-03-20T07:52:26;8.60;36.80
20839;DHT22;10580;51.092;6.828;2023-03-20T07:54:52;8.70;31.00
20839;DHT22;10580;51.092;6.828;2023-03-20T07:57:18;8.80;22.10
20839;DHT22;10580;51.092;6.828;2023-03-20T07:59:44;8.80;13.60
20839;DHT22;10580;51.092;6.828;2023-03-20T08:02:16;8.90;8.60
20839;DHT22;10580;51.092;6.828;2023-03-20T08:04:43;8.90;1.00
20839;DHT22;10580;51.092;6.828;2023-03-20T08:07:09;8.90;1.00
20839;DHT22;10580;51.092;6.828;2023-03-20T08:09:35;9.10;1.00
20839;DHT22;10580;51.092;6.828;2023-03-20T08:12:01;9.10;1.00
20839;DHT22;10580;51.092;6.828;2023-03-20T08:14:26;9.10;1.00
20839;DHT22;10580;51.092;6.828;2023-03-20T08:16:52;9.20;1.00
20839;DHT22;10580;51.092;6.828;2023-03-20T08:19:17;9.30;1.00
20839;DHT22;10580;51.092;6.828;2023-03-20T08:21:43;9.30;1.00
20839;DHT22;10580;51.092;6.828;2023-03-20T08:24:09;9.30;1.00
20839;DHT22;10580;51.092;6.828;2023-03-20T08:26:35;9.40;1.00
20839;DHT22;10580;51.092;6.828;2023-03-20T08:29:00;9.50;1.00
20839;DHT22;10580;51.092;6.828;2023-03-20T08:31:26;9.60;1.00
20839;DHT22;10580;51.092;6.828;2023-03-20T08:33:52;9.70;1.00
20839;DHT22;10580;51.092;6.828;2023-03-20T08:36:18;9.90;1.00
20839;DHT22;10580;51.092;6.828;2023-03-20T08:38:47;10.00;1.00
20839;DHT22;10580;51.092;6.828;2023-03-20T08:41:14;10.10;99.90
20839;DHT22;10580;51.092;6.828;2023-03-20T08:43:39;10.40;99.90
20839;DHT22;10580;51.092;6.828;2023-03-20T08:46:05;10.60;1.40
20839;DHT22;10580;51.092;6.828;2023-03-20T08:48:30;10.60;1.00
20839;DHT22;10580;51.092;6.828;2023-03-20T08:50:56;10.40;99.90
20839;DHT22;10580;51.092;6.828;2023-03-20T08:53:22;10.10;1.00
20839;DHT22;10580;51.092;6.828;2023-03-20T08:55:48;9.90;1.00
20839;DHT22;10580;51.092;6.828;2023-03-20T08:58:15;9.90;1.00
20839;DHT22;10580;51.092;6.828;2023-03-20T09:00:40;9.90;61.00
20839;DHT22;10580;51.092;6.828;2023-03-20T09:03:08;10.00;1.00
20839;DHT22;10580;51.092;6.828;2023-03-20T09:05:38;10.20;1.00
20839;DHT22;10580;51.092;6.828;2023-03-20T09:08:04;10.30;1.00
20839;DHT22;10580;51.092;6.828;2023-03-20T09:10:29;10.20;99.90
20839;DHT22;10580;51.092;6.828;2023-03-20T09:12:55;10.20;99.90
20839;DHT22;10580;51.092;6.828;2023-03-20T09:15:20;10.20;99.90
20839;DHT22;10580;51.092;6.828;2023-03-20T09:17:46;10.10;99.90
20839;DHT22;10580;51.092;6.828;2023-03-20T09:20:12;10.00;1.00
20839;DHT22;10580;51.092;6.828;2023-03-20T09:22:37;10.00;1.00
20839;DHT22;10580;51.092;6.828;2023-03-20T09:25:06;9.90;99.90
20839;DHT22;10580;51.092;6.828;2023-03-20T09:27:32;9.70;21.10
20839;DHT22;10580;51.092;6.828;2023-03-20T09:29:57;9.70;1.00
20839;DHT22;10580;51.092;6.828;2023-03-20T09:32:23;9.60;1.00
20839;DHT22;10580;51.092;6.828;2023-03-20T09:34:48;9.70;1.00
20839;DHT22;10580;51.092;6.828;2023-03-20T09:37:14;9.80;99.90
20839;DHT22;10580;51.092;6.828;2023-03-20T09:39:39;9.80;1.00
20839;DHT22;10580;51.092;6.828;2023-03-20T09:45:07;10.10;1.00
20839;DHT22;10580;51.092;6.828;2023-03-20T09:55:36;10.20;99.90
20839;DHT22;10580;51.092;6.828;2023-03-20T09:58:11;10.40;1.00
20839;DHT22;10580;51.092;6.828;2023-03-20T10:00:40;10.20;99.90
20839;DHT22;10580;51.092;6.828;2023-03-20T10:03:26;10.40;1.00
20839;DHT22;10580;51.092;6.828;2023-03-20T10:05:59;10.30;1.00
20839;DHT22;10580;51.092;6.828;2023-03-20T10:08:35;10.10;99.90
20839;DHT22;10580;51.092;6.828;2023-03-20T10:16:45;10.30;99.90
20839;DHT22;10580;51.092;6.828;2023-03-20T10:24:47;10.20;99.90
20839;DHT22;10580;51.092;6.828;2023-03-20T10:27:32;10.10;1.00
20839;DHT22;10580;51.092;6.828;2023-03-20T10:30:20;10.00;99.90
20839;DHT22;10580;51.092;6.828;2023-03-20T10:38:41;9.80;63.10
20839;DHT22;10580;51.092;6.828;2023-03-20T10:41:13;9.80;1.00
20839;DHT22;10580;51.092;6.828;2023-03-20T10:43:43;10.00;1.00
20839;DHT22;10580;51.092;6.828;2023-03-20T10:46:14;10.10;1.00
20839;DHT22;10580;51.092;6.828;2023-03-20T10:49:03;10.10;1.00
20839;DHT22;10580;51.092;6.828;2023-03-20T10:51:39;10.20;1.00
20839;DHT22;10580;51.092;6.828;2023-03-20T10:54:20;10.30;99.90
20839;DHT22;10580;51.092;6.828;2023-03-20T10:59:37;10.10;1.00
20839;DHT22;10580;51.092;6.828;2023-03-20T11:02:09;10.10;1.00
20839;DHT22;10580;51.092;6.828;2023-03-20T11:04:35;10.10;1.00
20839;DHT22;10580;51.092;6.828;2023-03-20T11:07:12;10.10;1.00
20839;DHT22;10580;51.092;6.828;2023-03-20T11:09:40;10.10;1.00
20839;DHT22;10580;51.092;6.828;2023-03-20T11:12:14;9.90;1.00
20839;DHT22;10580;51.092;6.828;2023-03-20T11:14:42;10.00;1.00
20839;DHT22;10580;51.092;6.828;2023-03-20T11:17:12;9.90;1.00
20839;DHT22;10580;51.092;6.828;2023-03-20T11:19:40;9.80;1.00
20839;DHT22;10580;51.092;6.828;2023-03-20T11:24:46;9.60;1.00
20839;DHT22;10580;51.092;6.828;2023-03-20T11:27:24;9.60;1.00
20839;DHT22;10580;51.092;6.828;2023-03-20T11:29:51;9.50;1.00
20839;DHT22;10580;51.092;6.828;2023-03-20T11:32:33;9.60;1.00
20839;DHT22;10580;51.092;6.828;2023-03-20T11:35:20;9.70;1.00
20839;DHT22;10580;51.092;6.828;2023-03-20T11:37:48;9.70;1.00
20839;DHT22;10580;51.092;6.828;2023-03-20T11:45:21;9.60;1.00
20839;DHT22;10580;51.092;6.828;2023-03-20T11:47:52;9.40;1.00
20839;DHT22;10580;51.092;6.828;2023-03-20T11:50:36;9.40;99.90
20839;DHT22;10580;51.092;6.828;2023-03-20T11:53:30;9.20;1.00
20839;DHT22;10580;51.092;6.828;2023-03-20T11:56:01;9.30;1.00
20839;DHT22;10580;51.092;6.828;2023-03-20T11:58:28;9.30;1.00
20839;DHT22;10580;51.092;6.828;2023-03-20T12:00:54;9.40;1.00
20839;DHT22;10580;51.092;6.828;2023-03-20T12:03:40;9.60;99.90
20839;DHT22;10580;51.092;6.828;2023-03-20T12:06:15;9.70;1.00
20839;DHT22;10580;51.092;6.828;2023-03-20T12:08:51;9.90;99.90
20839;DHT22;10580;51.092;6.828;2023-03-20T12:11:44;9.70;1.00
20839;DHT22;10580;51.092;6.828;2023-03-20T12:17:38;9.70;1.00
20839;DHT22;10580;51.092;6.828;2023-03-20T12:20:51;9.70;1.00
20839;DHT22;10580;51.092;6.828;2023-03-20T12:31:39;10.00;99.90
20839;DHT22;10580;51.092;6.828;2023-03-20T12:34:20;9.70;99.90
20839;DHT22;10580;51.092;6.828;2023-03-20T12:36:47;9.70;76.00
20839;DHT22;10580;51.092;6.828;2023-03-20T12:39:14;9.60;99.90
20839;DHT22;10580;51.092;6.828;2023-03-20T12:41:50;9.70;99.90
20839;DHT22;10580;51.092;6.828;2023-03-20T12:44:37;9.60;99.90
20839;DHT22;10580;51.092;6.828;2023-03-20T12:47:24;9.80;1.00
20839;DHT22;10580;51.092;6.828;2023-03-20T12:52:34;9.70;1.00
20839;DHT22;10580;51.092;6.828;2023-03-20T12:55:20;9.90;1.00
20839;DHT22;10580;51.092;6.828;2023-03-20T12:57:57;10.00;6.50
20839;DHT22;10580;51.092;6.828;2023-03-20T13:06:19;10.10;1.00
20839;DHT22;10580;51.092;6.828;2023-03-20T13:16:47;10.10;1.00
20839;DHT22;10580;51.092;6.828;2023-03-20T13:22:11;10.50;99.90
20839;DHT22;10580;51.092;6.828;2023-03-20T13:27:40;10.50;1.00
20839;DHT22;10580;51.092;6.828;2023-03-20T13:30:30;10.30;1.00
20839;DHT22;10580;51.092;6.828;2023-03-20T13:33:17;10.30;1.00
20839;DHT22;10580;51.092;6.828;2023-03-20T13:38:29;10.60;1.00
20839;DHT22;10580;51.092;6.828;2023-03-20T13:41:00;10.70;1.00
20839;DHT22;10580;51.092;6.828;2023-03-20T13:46:21;11.00;1.00
20839;DHT22;10580;51.092;6.828;2023-03-20T13:48:50;11.10;1.00
20839;DHT22;10580;51.092;6.828;2023-03-20T13:51:27;11.00;1.00
20839;DHT22;10580;51.092;6.828;2023-03-20T14:05:18;11.00;99.90
20839;DHT22;10580;51.092;6.828;2023-03-20T14:07:47;11.10;1.00
20839;DHT22;10580;51.092;6.828;2023-03-20T14:12:58;11.00;1.00
20839;DHT22;10580;51.092;6.828;2023-03-20T14:15:32;11.00;99.90
20839;DHT22;10580;51.092;6.828;2023-03-20T14:18:03;11.10;99.90
20839;DHT22;10580;51.092;6.828;2023-03-20T14:20:33;11.10;99.90
20839;DHT22;10580;51.092;6.828;2023-03-20T14:22:59;11.10;99.90
20839;DHT22;10580;51.092;6.828;2023-03-20T14:25:28;11.10;99.90
20839;DHT22;10580;51.092;6.828;2023-03-20T14:28:24;11.00;70.10
20839;DHT22;10580;51.092;6.828;2023-03-20T14:31:10;11.00;1.00
20839;DHT22;10580;51.092;6.828;2023-03-20T14:33:42;10.80;1.00
20839;DHT22;10580;51.092;6.828;2023-03-20T14:36:22;10.80;15.30
20839;DHT22;10580;51.092;6.828;2023-03-20T14:39:11;10.80;99.90
20839;DHT22;10580;51.092;6.828;2023-03-20T14:55:32;11.00;82.90
20839;DHT22;10580;51.092;6.828;2023-03-20T14:58:26;10.90;7.20
20839;DHT22;10580;51.092;6.828;2023-03-20T15:00:50;10.80;17.70
20839;DHT22;10580;51.092;6.828;2023-03-20T15:03:16;10.80;99.90
20839;DHT22;10580;51.092;6.828;2023-03-20T15:05:43;10.70;99.90
20839;DHT22;10580;51.092;6.828;2023-03-20T15:08:16;10.80;1.00
20839;DHT22;10580;51.092;6.828;2023-03-20T15:10:50;10.70;1.00
20839;DHT22;10580;51.092;6.828;2023-03-20T15:13:17;10.70;1.00
20839;DHT22;10580;51.092;6.828;2023-03-20T15:15:55;10.70;99.90
20839;DHT22;10580;51.092;6.828;2023-03-20T15:18:23;10.70;99.90
20839;DHT22;10580;51.092;6.828;2023-03-20T15:20:49;10.70;1.00
20839;DHT22;10580;51.092;6.828;2023-03-20T15:23:14;10.60;99.90
20839;DHT22;10580;51.092;6.828;2023-03-20T15:25:49;10.60;99.90
20839;DHT22;10580;51.092;6.828;2023-03-20T15:28:22;10.60;1.00
20839;DHT22;10580;51.092;6.828;2023-03-20T15:30:49;10.70;99.90
20839;DHT22;10580;51.092;6.828;2023-03-20T15:33:28;10.70;1.00
20839;DHT22;10580;51.092;6.828;2023-03-20T15:35:55;10.80;1.00
20839;DHT22;10580;51.092;6.828;2023-03-20T15:38:21;10.80;1.00
20839;DHT22;10580;51.092;6.828;2023-03-20T15:40:46;10.90;1.00
20839;DHT22;10580;51.092;6.828;2023-03-20T15:43:22;10.90;99.90
20839;DHT22;10580;51.092;6.828;2023-03-20T15:45:49;10.90;99.90
20839;DHT22;10580;51.092;6.828;2023-03-20T15:48:18;10.90;99.90
20839;DHT22;10580;51.092;6.828;2023-03-20T15:50:52;10.90;99.90
20839;DHT22;10580;51.092;6.828;2023-03-20T15:53:29;11.00;99.90
20839;DHT22;10580;51.092;6.828;2023-03-20T15:56:07;11.00;99.90
20839;DHT22;10580;51.092;6.828;2023-03-20T15:58:35;11.00;99.90
20839;DHT22;10580;51.092;6.828;2023-03-20T16:01:04;10.90;99.90
20839;DHT22;10580;51.092;6.828;2023-03-20T16:03:31;10.90;99.90
20839;DHT22;10580;51.092;6.828;2023-03-20T16:05:59;11.00;99.90
20839;DHT22;10580;51.092;6.828;2023-03-20T16:08:31;10.50;1.00
20839;DHT22;10580;51.092;6.828;2023-03-20T16:11:05;11.00;1.00
20839;DHT22;10580;51.092;6.828;2023-03-20T16:13:40;11.10;1.00
20839;DHT22;10580;51.092;6.828;2023-03-20T16:16:11;11.10;99.90
20839;DHT22;10580;51.092;6.828;2023-03-20T16:18:39;11.10;99.90
20839;DHT22;10580;51.092;6.828;2023-03-20T16:21:12;11.00;99.90
20839;DHT22;10580;51.092;6.828;2023-03-20T16:23:48;11.00;1.00
20839;DHT22;10580;51.092;6.828;2023-03-20T16:26:17;11.00;1.00
20839;DHT22;10580;51.092;6.828;2023-03-20T16:28:50;11.00;1.00
20839;DHT22;10580;51.092;6.828;2023-03-20T16:31:25;10.90;99.90
20839;DHT22;10580;51.092;6.828;2023-03-20T16:33:52;10.90;99.90
20839;DHT22;10580;51.092;6.828;2023-03-20T16:36:28;10.90;99.90
20839;DHT22;10580;51.092;6.828;2023-03-20T16:41:34;10.90;99.90
20839;DHT22;10580;51.092;6.828;2023-03-20T16:44:11;10.90;99.90
20839;DHT22;10580;51.092;6.828;2023-03-20T16:47:00;10.90;99.90
20839;DHT22;10580;51.092;6.828;2023-03-20T16:52:04;10.90;99.90
20839;DHT22;10580;51.092;6.828;2023-03-20T16:54:34;10.90;20.00
20839;DHT22;10580;51.092;6.828;2023-03-20T16:57:00;10.90;4.30
20839;DHT22;10580;51.092;6.828;2023-03-20T16:59:28;10.80;1.00
20839;DHT22;10580;51.092;6.828;2023-03-20T17:01:58;10.90;1.00
20839;DHT22;10580;51.092;6.828;2023-03-20T17:04:35;10.80;1.00
20839;DHT22;10580;51.092;6.828;2023-03-20T17:07:16;10.80;1.00
20839;DHT22;10580;51.092;6.828;2023-03-20T17:12:39;10.80;99.90
20839;DHT22;10580;51.092;6.828;2023-03-20T17:15:06;10.70;98.30
20839;DHT22;10580;51.092;6.828;2023-03-20T17:17:32;10.80;99.90
20839;DHT22;10580;51.092;6.828;2023-03-20T17:19:58;10.70;99.90
20839;DHT22;10580;51.092;6.828;2023-03-20T17:22:26;10.60;99.90
20839;DHT22;10580;51.092;6.828;2023-03-20T17:24:53;10.60;1.00
20839;DHT22;10580;51.092;6.828;2023-03-20T17:27:20;10.50;1.00
20839;DHT22;10580;51.092;6.828;2023-03-20T17:29:46;10.50;1.00
20839;DHT22;10580;51.092;6.828;2023-03-20T17:32:20;10.50;1.00
20839;DHT22;10580;51.092;6.828;2023-03-20T17:34:48;10.40;1.00
20839;DHT22;10580;51.092;6.828;2023-03-20T17:37:18;10.50;1.00
20839;DHT22;10580;51.092;6.828;2023-03-20T17:39:45;10.50;1.00
20839;DHT22;10580;51.092;6.828;2023-03-20T17:42:17;10.50;1.00
20839;DHT22;10580;51.092;6.828;2023-03-20T17:44:44;10.50;1.00
20839;DHT22;10580;51.092;6.828;2023-03-20T17:47:18;10.50;1.00
20839;DHT22;10580;51.092;6.828;2023-03-20T17:49:44;10.50;1.00
20839;DHT22;10580;51.092;6.828;2023-03-20T17:52:23;10.40;1.00
20839;DHT22;10580;51.092;6.828;2023-03-20T17:54:48;10.40;1.00
20839;DHT22;10580;51.092;6.828;2023-03-20T17:57:34;10.40;1.00
20839;DHT22;10580;51.092;6.828;2023-03-20T18:00:00;10.40;99.90
20839;DHT22;10580;51.092;6.828;2023-03-20T18:02:26;10.40;1.00
20839;DHT22;10580;51.092;6.828;2023-03-20T18:04:52;10.30;1.00
20839;DHT22;10580;51.092;6.828;2023-03-20T18:07:18;10.30;1.00
20839;DHT22;10580;51.092;6.828;2023-03-20T18:09:45;10.30;1.00
20839;DHT22;10580;51.092;6.828;2023-03-20T18:12:13;10.30;1.00
20839;DHT22;10580;51.092;6.828;2023-03-20T18:14:40;10.30;1.00
20839;DHT22;10580;51.092;6.828;2023-03-20T18:17:05;10.30;1.00
20839;DHT22;10580;51.092;6.828;2023-03-20T18:19:31;10.30;1.00
20839;DHT22;10580;51.092;6.828;2023-03-20T18:21:58;10.30;1.00